createdAt,value
2022-11-04T00:01:51.840Z,75831.69
2022-11-04T00:05:53.407Z,75835.84
2022-11-04T00:09:56.243Z,75833.75
2022-11-04T00:13:57.753Z,75844.13
2022-11-04T00:17:59.227Z,75846.22
2022-11-04T00:22:00.660Z,75837.91
2022-11-04T00:26:03.391Z,75850.38
2022-11-04T00:30:08.365Z,75850.38
2022-11-04T00:34:09.839Z,75840.00
2022-11-04T00:38:11.431Z,75829.59
2022-11-04T00:42:14.591Z,75848.28
2022-11-04T00:46:16.000Z,75829.59
2022-11-04T00:50:17.563Z,75825.47
2022-11-04T00:54:19.066Z,75837.91
2022-11-04T00:58:22.064Z,75842.06
2022-11-04T01:02:24.038Z,75850.38
2022-11-04T01:06:26.698Z,75850.38
2022-11-04T01:10:28.359Z,75873.19
2022-11-04T01:14:31.307Z,75896.03
2022-11-04T01:18:33.414Z,75914.72
2022-11-04T01:22:34.818Z,75929.25
2022-11-04T01:26:36.996Z,75962.47
2022-11-04T01:30:39.845Z,75956.25
2022-11-04T01:34:43.471Z,75987.38
2022-11-04T01:38:45.424Z,76006.06
2022-11-04T01:42:46.860Z,76024.75
2022-11-04T01:46:53.213Z,76045.50
2022-11-04T01:50:55.363Z,76053.81
2022-11-04T01:55:06.383Z,76055.91
2022-11-04T01:59:15.004Z,76084.97
2022-11-04T02:03:21.532Z,76114.03
2022-11-04T02:07:23.571Z,76132.72
2022-11-04T02:11:25.212Z,76143.09
2022-11-04T02:15:34.976Z,76151.41
2022-11-04T02:19:59.465Z,76149.31
2022-11-04T02:24:21.107Z,76151.41
2022-11-04T02:28:54.690Z,76168.00
2022-11-04T02:33:16.454Z,76178.38
2022-11-04T02:37:28.458Z,76174.22
2022-11-04T02:41:40.562Z,76184.63
2022-11-04T02:45:45.062Z,76190.84
2022-11-04T02:49:52.791Z,76184.63
2022-11-04T02:54:04.304Z,76174.22
2022-11-04T02:58:10.858Z,76174.22
2022-11-04T03:02:17.450Z,76153.47
2022-11-04T03:06:24.019Z,76141.00
2022-11-04T03:10:32.696Z,76157.63
2022-11-04T03:14:38.968Z,76163.84
2022-11-04T03:18:49.495Z,76178.38
2022-11-04T03:22:52.475Z,76195.00
2022-11-04T03:27:00.080Z,76203.28
2022-11-04T03:31:04.119Z,76195.00
2022-11-04T03:35:06.966Z,76199.16
2022-11-04T03:39:10.026Z,76209.53
2022-11-04T03:43:16.250Z,76215.75
2022-11-04T03:47:19.876Z,76203.28
2022-11-04T03:51:21.266Z,76190.84
2022-11-04T03:55:36.971Z,76205.38
2022-11-04T03:59:55.371Z,76217.84
2022-11-04T04:04:01.495Z,76230.28
2022-11-04T04:08:14.887Z,76236.50
2022-11-04T04:12:25.370Z,76251.06
2022-11-04T04:16:32.875Z,76269.72
2022-11-04T04:20:36.439Z,76271.81
